Home   Weather   Ireland   Dublin   Past weeks
Flag for Ireland

Past Weather in Dublin, Ireland — Yesterday and Last 2 Weeks

Currently: 68 °F. Sunny. (Weather station: Dublin Airport, Ireland). See more current weather

Past Weather in Dublin — Graph

°F

Dublin Temperature Yesterday

Maximum temperature yesterday: 79 °F (at 1:30 pm)
Minimum temperature yesterday: 50 °F (at 2:00 am)
Average temperature yesterday: 65 °F

High & Low Weather Summary for the Past Weeks

 TemperatureHumidityPressure
High79 °F (Aug 10, 1:30 pm)100% (Jul 29, 2:00 am)30.42 "Hg (Jul 29, 2:00 am)
Low45 °F (Aug 6, 2:00 am)30% (Aug 11, 4:30 pm)29.71 "Hg (Aug 2, 7:00 pm)
Average62 °F75%30.12 "Hg
* Reported Jul 27 8:00 pm — Aug 11 8:30 pm, Dublin. Weather by CustomWeather, © 2022

Note: Actual official high and low records may vary slightly from our data, if they occured in-between our weather recording intervals... More about our weather records

Dublin Weather History for the Previous 24 Hours

Scroll right to see more
 ConditionsComfort  
Time TempWeatherWind HumidityBarometerVisibility
8:30 pm
Thu, Aug 11
72 °FPassing clouds.5 mph38%30.18 "HgN/A
8:00 pm72 °FPassing clouds.5 mph41%30.18 "HgN/A
7:30 pm73 °FPassing clouds.6 mph41%30.18 "HgN/A
7:00 pm75 °FPassing clouds.7 mph41%30.18 "HgN/A
6:30 pm75 °FPassing clouds.6 mph41%30.18 "HgN/A
6:00 pm77 °FPassing clouds.8 mph39%30.18 "HgN/A
5:30 pm77 °FPassing clouds.9 mph34%30.18 "HgN/A
5:00 pm79 °FPassing clouds.12 mph32%30.18 "HgN/A
4:30 pm79 °FPassing clouds.12 mph30%30.18 "HgN/A
4:00 pm79 °FPassing clouds.9 mph32%30.18 "HgN/A
2:00 pm79 °FSunny.9 mph34%30.21 "Hg10 mi
1:30 pm79 °FPassing clouds.9 mph37%30.21 "HgN/A
1:00 pm79 °FPassing clouds.8 mph39%30.21 "HgN/A
12:00 pm79 °FPassing clouds.8 mph45%30.21 "HgN/A
11:30 am79 °FPassing clouds.6 mph42%30.21 "HgN/A
11:00 am77 °FPassing clouds.5 mph42%30.21 "HgN/A
10:00 am73 °FSunny.2 mph53%30.21 "Hg10 mi
9:30 am70 °FSunny.2 mph64%30.21 "Hg10 mi
9:00 am68 °FSunny.2 mph60%30.21 "Hg10 mi
8:00 am63 °FSunny.2 mph77%30.21 "Hg10 mi
7:00 am55 °FSunny.3 mph88%30.21 "Hg10 mi
6:00 am50 °FSunny.6 mph94%30.21 "Hg10 mi
5:30 am50 °FClear.7 mph100%30.21 "Hg10 mi
5:00 am50 °FClear.3 mph88%30.21 "Hg10 mi
4:00 am52 °FClear.2 mph94%30.21 "Hg10 mi
3:30 am52 °FClear.1 mph94%30.24 "Hg10 mi
3:00 am52 °FClear.2 mph94%30.24 "Hg10 mi
2:30 am52 °FClear.2 mph88%30.21 "Hg10 mi
2:00 am50 °FClear.1 mph94%30.24 "Hg10 mi
12:30 am55 °FClear.1 mph82%30.24 "Hg10 mi
12:00 am57 °FClear.2 mph77%30.24 "Hg10 mi
11:30 pm
Wed, Aug 10
57 °FClear.2 mph82%30.24 "Hg10 mi
11:00 pm59 °FClear.2 mph77%30.24 "Hg10 mi
10:30 pm59 °FClear.2 mph77%30.24 "Hg10 mi
10:00 pm59 °FClear.3 mph77%30.24 "Hg10 mi
9:30 pm61 °FClear.3 mph72%30.24 "Hg10 mi
9:00 pm66 °FPassing clouds.6 mph60%30.24 "HgN/A
Weather by CustomWeather, © 2022

See weather overview